sensor_id;sensor_type;location;lat;lon;timestamp;P1;durP1;ratioP1;P2;durP2;ratioP2
22849;SDS011;11591;44.792;10.358;2023-01-30T00:02:10;31.77;;;12.30;;
22849;SDS011;11591;44.792;10.358;2023-01-30T00:04:36;30.70;;;12.25;;
22849;SDS011;11591;44.792;10.358;2023-01-30T00:07:01;36.15;;;12.65;;
22849;SDS011;11591;44.792;10.358;2023-01-30T00:09:27;34.45;;;13.07;;
22849;SDS011;11591;44.792;10.358;2023-01-30T00:11:53;30.58;;;11.45;;
22849;SDS011;11591;44.792;10.358;2023-01-30T00:14:19;31.35;;;12.15;;
22849;SDS011;11591;44.792;10.358;2023-01-30T00:16:44;27.65;;;11.80;;
22849;SDS011;11591;44.792;10.358;2023-01-30T00:19:10;29.48;;;11.45;;
22849;SDS011;11591;44.792;10.358;2023-01-30T00:21:36;28.60;;;11.43;;
22849;SDS011;11591;44.792;10.358;2023-01-30T00:24:02;27.50;;;11.48;;
22849;SDS011;11591;44.792;10.358;2023-01-30T00:26:28;29.63;;;11.93;;
22849;SDS011;11591;44.792;10.358;2023-01-30T00:28:54;28.27;;;11.02;;
22849;SDS011;11591;44.792;10.358;2023-01-30T00:31:19;31.42;;;12.73;;
22849;SDS011;11591;44.792;10.358;2023-01-30T00:33:45;29.20;;;11.55;;
22849;SDS011;11591;44.792;10.358;2023-01-30T00:36:11;30.88;;;11.88;;
22849;SDS011;11591;44.792;10.358;2023-01-30T00:38:37;28.38;;;11.40;;
22849;SDS011;11591;44.792;10.358;2023-01-30T00:41:05;29.77;;;12.27;;
22849;SDS011;11591;44.792;10.358;2023-01-30T00:43:31;30.90;;;11.48;;
22849;SDS011;11591;44.792;10.358;2023-01-30T00:49:13;28.00;;;11.02;;
22849;SDS011;11591;44.792;10.358;2023-01-30T00:51:39;25.33;;;11.07;;
22849;SDS011;11591;44.792;10.358;2023-01-30T00:54:05;25.40;;;9.20;;
22849;SDS011;11591;44.792;10.358;2023-01-30T00:56:31;24.95;;;9.90;;
22849;SDS011;11591;44.792;10.358;2023-01-30T00:58:57;23.92;;;10.38;;
22849;SDS011;11591;44.792;10.358;2023-01-30T01:01:22;26.60;;;10.38;;
22849;SDS011;11591;44.792;10.358;2023-01-30T01:03:48;20.60;;;9.25;;
22849;SDS011;11591;44.792;10.358;2023-01-30T01:06:14;31.92;;;12.35;;
22849;SDS011;11591;44.792;10.358;2023-01-30T01:08:40;28.23;;;11.27;;
22849;SDS011;11591;44.792;10.358;2023-01-30T01:11:06;29.08;;;11.27;;
22849;SDS011;11591;44.792;10.358;2023-01-30T01:13:32;22.10;;;8.52;;
22849;SDS011;11591;44.792;10.358;2023-01-30T01:15:58;23.30;;;9.68;;
22849;SDS011;11591;44.792;10.358;2023-01-30T01:18:23;25.88;;;10.15;;
22849;SDS011;11591;44.792;10.358;2023-01-30T01:20:49;26.45;;;10.70;;
22849;SDS011;11591;44.792;10.358;2023-01-30T01:23:15;27.20;;;10.25;;
22849;SDS011;11591;44.792;10.358;2023-01-30T01:25:41;22.42;;;9.48;;
22849;SDS011;11591;44.792;10.358;2023-01-30T01:28:07;28.88;;;10.50;;
22849;SDS011;11591;44.792;10.358;2023-01-30T01:30:32;21.92;;;8.98;;
22849;SDS011;11591;44.792;10.358;2023-01-30T01:32:58;23.52;;;9.32;;
22849;SDS011;11591;44.792;10.358;2023-01-30T01:35:26;25.42;;;9.18;;
22849;SDS011;11591;44.792;10.358;2023-01-30T01:37:52;24.15;;;9.30;;
22849;SDS011;11591;44.792;10.358;2023-01-30T01:40:19;25.80;;;9.63;;
22849;SDS011;11591;44.792;10.358;2023-01-30T01:43:16;22.92;;;9.10;;
22849;SDS011;11591;44.792;10.358;2023-01-30T01:45:44;26.40;;;9.55;;
22849;SDS011;11591;44.792;10.358;2023-01-30T01:48:15;22.27;;;8.98;;
22849;SDS011;11591;44.792;10.358;2023-01-30T01:50:53;22.20;;;9.18;;
22849;SDS011;11591;44.792;10.358;2023-01-30T01:53:25;22.85;;;9.30;;
22849;SDS011;11591;44.792;10.358;2023-01-30T01:55:56;23.90;;;9.77;;
22849;SDS011;11591;44.792;10.358;2023-01-30T01:58:57;20.73;;;8.75;;
22849;SDS011;11591;44.792;10.358;2023-01-30T02:01:19;20.55;;;8.45;;
22849;SDS011;11591;44.792;10.358;2023-01-30T02:03:46;23.42;;;9.07;;
22849;SDS011;11591;44.792;10.358;2023-01-30T02:06:17;23.52;;;9.63;;
22849;SDS011;11591;44.792;10.358;2023-01-30T02:08:49;22.67;;;8.82;;
22849;SDS011;11591;44.792;10.358;2023-01-30T02:11:31;21.52;;;8.57;;
22849;SDS011;11591;44.792;10.358;2023-01-30T02:14:13;23.15;;;8.65;;
22849;SDS011;11591;44.792;10.358;2023-01-30T02:16:41;23.08;;;8.18;;
22849;SDS011;11591;44.792;10.358;2023-01-30T02:19:14;21.58;;;9.20;;
22849;SDS011;11591;44.792;10.358;2023-01-30T02:21:59;22.92;;;9.57;;
22849;SDS011;11591;44.792;10.358;2023-01-30T02:31:08;23.30;;;9.60;;
22849;SDS011;11591;44.792;10.358;2023-01-30T02:36:20;25.02;;;9.18;;
22849;SDS011;11591;44.792;10.358;2023-01-30T02:39:27;20.92;;;8.88;;
22849;SDS011;11591;44.792;10.358;2023-01-30T02:44:58;21.10;;;8.55;;
22849;SDS011;11591;44.792;10.358;2023-01-30T02:51:06;22.10;;;8.73;;
22849;SDS011;11591;44.792;10.358;2023-01-30T02:53:06;24.17;;;8.60;;
22849;SDS011;11591;44.792;10.358;2023-01-30T02:55:32;23.65;;;8.15;;
22849;SDS011;11591;44.792;10.358;2023-01-30T02:58:00;21.52;;;8.35;;
22849;SDS011;11591;44.792;10.358;2023-01-30T03:03:30;20.80;;;8.07;;
22849;SDS011;11591;44.792;10.358;2023-01-30T03:05:56;22.40;;;8.38;;
22849;SDS011;11591;44.792;10.358;2023-01-30T03:08:54;18.85;;;7.90;;
22849;SDS011;11591;44.792;10.358;2023-01-30T03:11:46;21.10;;;7.72;;
22849;SDS011;11591;44.792;10.358;2023-01-30T03:14:38;19.38;;;8.07;;
22849;SDS011;11591;44.792;10.358;2023-01-30T03:17:10;33.20;;;11.45;;
22849;SDS011;11591;44.792;10.358;2023-01-30T03:19:39;23.67;;;9.20;;
22849;SDS011;11591;44.792;10.358;2023-01-30T03:22:06;22.02;;;7.72;;
22849;SDS011;11591;44.792;10.358;2023-01-30T03:24:32;20.98;;;8.02;;
22849;SDS011;11591;44.792;10.358;2023-01-30T03:27:08;21.60;;;8.05;;
22849;SDS011;11591;44.792;10.358;2023-01-30T03:29:37;18.77;;;7.78;;
22849;SDS011;11591;44.792;10.358;2023-01-30T03:32:04;20.90;;;8.32;;
22849;SDS011;11591;44.792;10.358;2023-01-30T03:34:30;23.92;;;8.32;;
22849;SDS011;11591;44.792;10.358;2023-01-30T03:36:57;20.45;;;7.95;;
22849;SDS011;11591;44.792;10.358;2023-01-30T03:39:23;23.52;;;8.73;;
22849;SDS011;11591;44.792;10.358;2023-01-30T03:41:50;25.83;;;8.57;;
22849;SDS011;11591;44.792;10.358;2023-01-30T03:44:17;18.55;;;7.65;;
22849;SDS011;11591;44.792;10.358;2023-01-30T03:46:44;21.08;;;8.35;;
22849;SDS011;11591;44.792;10.358;2023-01-30T03:49:10;19.63;;;7.50;;
22849;SDS011;11591;44.792;10.358;2023-01-30T03:51:35;19.17;;;8.25;;
22849;SDS011;11591;44.792;10.358;2023-01-30T03:54:01;18.20;;;7.43;;
22849;SDS011;11591;44.792;10.358;2023-01-30T03:56:27;18.35;;;8.05;;
22849;SDS011;11591;44.792;10.358;2023-01-30T03:58:54;21.40;;;8.43;;
22849;SDS011;11591;44.792;10.358;2023-01-30T04:01:28;19.55;;;7.97;;
22849;SDS011;11591;44.792;10.358;2023-01-30T04:03:54;18.92;;;7.85;;
22849;SDS011;11591;44.792;10.358;2023-01-30T04:06:20;17.73;;;7.47;;
22849;SDS011;11591;44.792;10.358;2023-01-30T04:08:46;19.65;;;8.40;;
22849;SDS011;11591;44.792;10.358;2023-01-30T04:11:24;21.05;;;7.82;;
22849;SDS011;11591;44.792;10.358;2023-01-30T04:13:50;18.60;;;7.68;;
22849;SDS011;11591;44.792;10.358;2023-01-30T04:16:17;22.65;;;7.88;;
22849;SDS011;11591;44.792;10.358;2023-01-30T04:19:03;17.48;;;7.80;;
22849;SDS011;11591;44.792;10.358;2023-01-30T04:21:31;21.45;;;8.40;;
22849;SDS011;11591;44.792;10.358;2023-01-30T04:23:57;20.30;;;8.10;;
22849;SDS011;11591;44.792;10.358;2023-01-30T04:26:22;16.13;;;6.70;;
22849;SDS011;11591;44.792;10.358;2023-01-30T04:28:48;16.45;;;6.80;;
22849;SDS011;11591;44.792;10.358;2023-01-30T04:31:14;20.42;;;7.85;;
22849;SDS011;11591;44.792;10.358;2023-01-30T04:33:43;21.45;;;7.93;;
22849;SDS011;11591;44.792;10.358;2023-01-30T04:36:11;19.75;;;7.95;;
22849;SDS011;11591;44.792;10.358;2023-01-30T04:38:38;19.30;;;7.20;;
22849;SDS011;11591;44.792;10.358;2023-01-30T04:41:05;17.05;;;7.60;;
22849;SDS011;11591;44.792;10.358;2023-01-30T04:43:35;18.98;;;7.22;;
22849;SDS011;11591;44.792;10.358;2023-01-30T04:46:25;17.13;;;6.75;;
22849;SDS011;11591;44.792;10.358;2023-01-30T04:48:50;17.67;;;6.93;;
22849;SDS011;11591;44.792;10.358;2023-01-30T04:51:16;15.57;;;6.70;;
22849;SDS011;11591;44.792;10.358;2023-01-30T04:53:43;14.32;;;6.25;;
22849;SDS011;11591;44.792;10.358;2023-01-30T04:56:10;14.52;;;5.75;;
22849;SDS011;11591;44.792;10.358;2023-01-30T04:58:36;15.20;;;6.32;;
22849;SDS011;11591;44.792;10.358;2023-01-30T05:01:11;13.73;;;5.80;;
22849;SDS011;11591;44.792;10.358;2023-01-30T05:03:50;15.70;;;6.35;;
22849;SDS011;11591;44.792;10.358;2023-01-30T05:06:17;17.52;;;6.72;;
22849;SDS011;11591;44.792;10.358;2023-01-30T05:08:46;20.20;;;7.00;;
22849;SDS011;11591;44.792;10.358;2023-01-30T05:11:16;19.48;;;6.57;;
22849;SDS011;11591;44.792;10.358;2023-01-30T05:13:42;14.82;;;6.95;;
22849;SDS011;11591;44.792;10.358;2023-01-30T05:16:08;15.35;;;6.55;;
22849;SDS011;11591;44.792;10.358;2023-01-30T05:18:38;19.88;;;6.95;;
22849;SDS011;11591;44.792;10.358;2023-01-30T05:21:04;15.90;;;6.82;;
22849;SDS011;11591;44.792;10.358;2023-01-30T05:23:31;15.85;;;6.80;;
22849;SDS011;11591;44.792;10.358;2023-01-30T05:25:57;16.58;;;6.45;;
22849;SDS011;11591;44.792;10.358;2023-01-30T05:28:24;17.95;;;7.20;;
22849;SDS011;11591;44.792;10.358;2023-01-30T05:30:50;14.88;;;6.25;;
22849;SDS011;11591;44.792;10.358;2023-01-30T05:33:16;17.13;;;6.70;;
22849;SDS011;11591;44.792;10.358;2023-01-30T05:35:48;14.05;;;6.00;;
22849;SDS011;11591;44.792;10.358;2023-01-30T05:38:15;19.58;;;7.45;;
22849;SDS011;11591;44.792;10.358;2023-01-30T05:40:41;11.55;;;5.63;;
22849;SDS011;11591;44.792;10.358;2023-01-30T05:43:06;15.85;;;6.68;;
22849;SDS011;11591;44.792;10.358;2023-01-30T05:45:34;17.83;;;7.10;;
22849;SDS011;11591;44.792;10.358;2023-01-30T05:48:00;18.00;;;6.50;;
22849;SDS011;11591;44.792;10.358;2023-01-30T05:50:27;17.40;;;6.38;;
22849;SDS011;11591;44.792;10.358;2023-01-30T05:52:53;15.68;;;6.05;;
22849;SDS011;11591;44.792;10.358;2023-01-30T05:55:19;17.08;;;6.18;;
22849;SDS011;11591;44.792;10.358;2023-01-30T05:57:45;16.25;;;6.40;;
22849;SDS011;11591;44.792;10.358;2023-01-30T06:00:11;16.15;;;6.80;;
22849;SDS011;11591;44.792;10.358;2023-01-30T06:02:39;18.88;;;6.55;;
22849;SDS011;11591;44.792;10.358;2023-01-30T06:05:05;17.65;;;6.53;;
22849;SDS011;11591;44.792;10.358;2023-01-30T06:07:32;20.02;;;6.93;;
22849;SDS011;11591;44.792;10.358;2023-01-30T06:09:58;15.88;;;6.53;;
22849;SDS011;11591;44.792;10.358;2023-01-30T06:12:23;15.63;;;6.80;;
22849;SDS011;11591;44.792;10.358;2023-01-30T06:14:49;17.08;;;6.82;;
22849;SDS011;11591;44.792;10.358;2023-01-30T06:17:15;17.65;;;6.47;;
22849;SDS011;11591;44.792;10.358;2023-01-30T06:19:41;16.13;;;6.65;;
22849;SDS011;11591;44.792;10.358;2023-01-30T06:22:06;17.83;;;6.88;;
22849;SDS011;11591;44.792;10.358;2023-01-30T06:24:32;17.45;;;6.32;;
22849;SDS011;11591;44.792;10.358;2023-01-30T06:26:58;22.83;;;9.85;;
22849;SDS011;11591;44.792;10.358;2023-01-30T06:29:24;17.25;;;6.53;;
22849;SDS011;11591;44.792;10.358;2023-01-30T06:31:49;27.98;;;11.50;;
22849;SDS011;11591;44.792;10.358;2023-01-30T06:34:15;19.38;;;7.55;;
22849;SDS011;11591;44.792;10.358;2023-01-30T06:36:41;16.17;;;6.85;;
22849;SDS011;11591;44.792;10.358;2023-01-30T06:39:08;20.52;;;7.82;;
22849;SDS011;11591;44.792;10.358;2023-01-30T06:41:33;18.65;;;7.57;;
22849;SDS011;11591;44.792;10.358;2023-01-30T06:43:59;21.90;;;9.40;;
22849;SDS011;11591;44.792;10.358;2023-01-30T06:46:25;18.45;;;8.00;;
22849;SDS011;11591;44.792;10.358;2023-01-30T06:48:51;22.27;;;8.55;;
22849;SDS011;11591;44.792;10.358;2023-01-30T06:51:17;21.55;;;7.90;;
22849;SDS011;11591;44.792;10.358;2023-01-30T06:53:43;18.35;;;7.95;;
22849;SDS011;11591;44.792;10.358;2023-01-30T06:56:08;23.63;;;9.15;;
22849;SDS011;11591;44.792;10.358;2023-01-30T06:58:34;23.50;;;7.90;;
22849;SDS011;11591;44.792;10.358;2023-01-30T07:01:00;19.70;;;7.88;;
22849;SDS011;11591;44.792;10.358;2023-01-30T07:03:26;20.65;;;7.57;;
22849;SDS011;11591;44.792;10.358;2023-01-30T07:05:52;16.65;;;6.20;;
22849;SDS011;11591;44.792;10.358;2023-01-30T07:08:18;15.45;;;6.40;;
22849;SDS011;11591;44.792;10.358;2023-01-30T07:10:44;15.68;;;6.43;;
22849;SDS011;11591;44.792;10.358;2023-01-30T07:13:11;14.77;;;6.03;;
22849;SDS011;11591;44.792;10.358;2023-01-30T07:15:37;15.57;;;5.82;;
22849;SDS011;11591;44.792;10.358;2023-01-30T07:18:03;15.70;;;6.05;;
22849;SDS011;11591;44.792;10.358;2023-01-30T07:20:29;15.55;;;5.75;;
22849;SDS011;11591;44.792;10.358;2023-01-30T07:22:55;12.95;;;5.85;;
22849;SDS011;11591;44.792;10.358;2023-01-30T07:25:22;16.83;;;5.55;;
22849;SDS011;11591;44.792;10.358;2023-01-30T07:27:53;23.27;;;6.70;;
22849;SDS011;11591;44.792;10.358;2023-01-30T07:30:22;18.17;;;6.55;;
22849;SDS011;11591;44.792;10.358;2023-01-30T07:32:49;15.88;;;6.10;;
22849;SDS011;11591;44.792;10.358;2023-01-30T07:35:16;13.50;;;5.90;;
22849;SDS011;11591;44.792;10.358;2023-01-30T07:37:43;24.73;;;6.60;;
22849;SDS011;11591;44.792;10.358;2023-01-30T07:40:11;22.70;;;7.20;;
22849;SDS011;11591;44.792;10.358;2023-01-30T07:42:37;22.65;;;8.85;;
22849;SDS011;11591;44.792;10.358;2023-01-30T07:45:03;24.95;;;6.50;;
22849;SDS011;11591;44.792;10.358;2023-01-30T07:47:29;15.13;;;6.70;;
22849;SDS011;11591;44.792;10.358;2023-01-30T07:49:55;16.75;;;6.53;;
22849;SDS011;11591;44.792;10.358;2023-01-30T07:52:21;16.80;;;6.50;;
22849;SDS011;11591;44.792;10.358;2023-01-30T07:54:46;15.95;;;6.53;;
22849;SDS011;11591;44.792;10.358;2023-01-30T07:57:12;15.57;;;6.90;;
22849;SDS011;11591;44.792;10.358;2023-01-30T07:59:38;16.27;;;6.65;;
22849;SDS011;11591;44.792;10.358;2023-01-30T08:02:04;18.58;;;6.55;;
22849;SDS011;11591;44.792;10.358;2023-01-30T08:04:31;17.73;;;6.65;;
22849;SDS011;11591;44.792;10.358;2023-01-30T08:06:57;21.05;;;8.02;;
22849;SDS011;11591;44.792;10.358;2023-01-30T08:09:23;17.40;;;7.97;;
22849;SDS011;11591;44.792;10.358;2023-01-30T08:11:48;21.50;;;8.00;;
22849;SDS011;11591;44.792;10.358;2023-01-30T08:14:14;16.10;;;7.40;;
22849;SDS011;11591;44.792;10.358;2023-01-30T08:16:40;17.63;;;8.10;;
22849;SDS011;11591;44.792;10.358;2023-01-30T08:19:06;21.27;;;8.52;;
22849;SDS011;11591;44.792;10.358;2023-01-30T08:21:32;28.38;;;8.80;;
22849;SDS011;11591;44.792;10.358;2023-01-30T08:23:58;19.27;;;7.75;;
22849;SDS011;11591;44.792;10.358;2023-01-30T08:26:23;30.13;;;7.88;;
22849;SDS011;11591;44.792;10.358;2023-01-30T08:28:49;18.10;;;8.18;;
22849;SDS011;11591;44.792;10.358;2023-01-30T08:31:15;24.80;;;8.02;;
22849;SDS011;11591;44.792;10.358;2023-01-30T08:33:42;21.58;;;8.23;;
22849;SDS011;11591;44.792;10.358;2023-01-30T08:36:08;23.17;;;8.57;;
22849;SDS011;11591;44.792;10.358;2023-01-30T08:38:34;22.77;;;8.77;;
22849;SDS011;11591;44.792;10.358;2023-01-30T08:41:02;21.63;;;8.77;;
22849;SDS011;11591;44.792;10.358;2023-01-30T08:43:29;23.15;;;8.32;;
22849;SDS011;11591;44.792;10.358;2023-01-30T08:45:55;21.83;;;9.20;;
22849;SDS011;11591;44.792;10.358;2023-01-30T08:48:21;22.63;;;8.50;;
22849;SDS011;11591;44.792;10.358;2023-01-30T08:50:51;19.98;;;8.38;;
22849;SDS011;11591;44.792;10.358;2023-01-30T08:53:18;20.30;;;8.38;;
22849;SDS011;11591;44.792;10.358;2023-01-30T08:55:44;19.35;;;8.23;;
22849;SDS011;11591;44.792;10.358;2023-01-30T08:58:10;21.85;;;8.80;;
22849;SDS011;11591;44.792;10.358;2023-01-30T09:00:36;20.52;;;8.82;;
22849;SDS011;11591;44.792;10.358;2023-01-30T09:03:03;18.25;;;7.93;;
22849;SDS011;11591;44.792;10.358;2023-01-30T09:05:29;16.52;;;7.30;;
22849;SDS011;11591;44.792;10.358;2023-01-30T09:07:55;19.95;;;8.10;;
22849;SDS011;11591;44.792;10.358;2023-01-30T09:10:21;22.92;;;8.02;;
22849;SDS011;11591;44.792;10.358;2023-01-30T09:12:48;18.90;;;7.35;;
22849;SDS011;11591;44.792;10.358;2023-01-30T09:15:14;21.05;;;7.28;;
22849;SDS011;11591;44.792;10.358;2023-01-30T09:17:40;18.55;;;6.60;;
22849;SDS011;11591;44.792;10.358;2023-01-30T09:20:06;15.05;;;6.95;;
22849;SDS011;11591;44.792;10.358;2023-01-30T09:22:33;20.10;;;7.20;;
22849;SDS011;11591;44.792;10.358;2023-01-30T09:24:59;20.10;;;7.20;;
22849;SDS011;11591;44.792;10.358;2023-01-30T09:27:25;17.75;;;7.18;;
22849;SDS011;11591;44.792;10.358;2023-01-30T09:29:51;18.58;;;7.85;;
22849;SDS011;11591;44.792;10.358;2023-01-30T09:32:16;24.48;;;8.88;;
22849;SDS011;11591;44.792;10.358;2023-01-30T09:34:42;21.45;;;8.25;;
22849;SDS011;11591;44.792;10.358;2023-01-30T09:37:08;20.48;;;8.00;;
22849;SDS011;11591;44.792;10.358;2023-01-30T09:39:34;31.23;;;9.07;;
22849;SDS011;11591;44.792;10.358;2023-01-30T09:47:13;21.23;;;9.45;;
22849;SDS011;11591;44.792;10.358;2023-01-30T09:55:23;32.15;;;10.57;;
22849;SDS011;11591;44.792;10.358;2023-01-30T09:57:51;27.65;;;11.05;;
22849;SDS011;11591;44.792;10.358;2023-01-30T10:13:41;28.25;;;11.40;;
22849;SDS011;11591;44.792;10.358;2023-01-30T10:16:33;26.55;;;12.00;;
22849;SDS011;11591;44.792;10.358;2023-01-30T10:26:48;30.55;;;11.75;;
22849;SDS011;11591;44.792;10.358;2023-01-30T10:29:18;31.00;;;11.00;;
22849;SDS011;11591;44.792;10.358;2023-01-30T10:31:58;23.40;;;9.20;;
22849;SDS011;11591;44.792;10.358;2023-01-30T10:34:39;19.80;;;8.95;;
22849;SDS011;11591;44.792;10.358;2023-01-30T10:37:23;23.08;;;9.35;;
22849;SDS011;11591;44.792;10.358;2023-01-30T10:39:53;22.83;;;8.93;;
22849;SDS011;11591;44.792;10.358;2023-01-30T10:45:08;26.73;;;9.90;;
22849;SDS011;11591;44.792;10.358;2023-01-30T10:50:25;22.77;;;9.82;;
22849;SDS011;11591;44.792;10.358;2023-01-30T10:55:45;28.13;;;10.25;;
22849;SDS011;11591;44.792;10.358;2023-01-30T10:58:23;30.27;;;10.82;;
22849;SDS011;11591;44.792;10.358;2023-01-30T11:01:06;30.48;;;11.23;;
22849;SDS011;11591;44.792;10.358;2023-01-30T11:03:44;28.45;;;11.23;;
22849;SDS011;11591;44.792;10.358;2023-01-30T11:06:15;31.73;;;11.05;;
22849;SDS011;11591;44.792;10.358;2023-01-30T11:08:44;25.73;;;11.20;;
22849;SDS011;11591;44.792;10.358;2023-01-30T11:14:07;31.92;;;11.82;;
22849;SDS011;11591;44.792;10.358;2023-01-30T11:16:47;28.27;;;11.10;;
22849;SDS011;11591;44.792;10.358;2023-01-30T11:19:24;27.33;;;11.35;;
22849;SDS011;11591;44.792;10.358;2023-01-30T11:21:59;34.83;;;12.20;;
22849;SDS011;11591;44.792;10.358;2023-01-30T11:24:31;36.35;;;11.27;;
22849;SDS011;11591;44.792;10.358;2023-01-30T11:27:11;28.48;;;11.23;;
22849;SDS011;11591;44.792;10.358;2023-01-30T11:32:46;31.10;;;11.57;;
22849;SDS011;11591;44.792;10.358;2023-01-30T11:37:40;29.73;;;11.90;;
22849;SDS011;11591;44.792;10.358;2023-01-30T11:42:49;32.70;;;12.93;;
22849;SDS011;11591;44.792;10.358;2023-01-30T11:45:16;31.50;;;12.20;;
22849;SDS011;11591;44.792;10.358;2023-01-30T11:47:56;34.17;;;13.00;;
22849;SDS011;11591;44.792;10.358;2023-01-30T11:50:38;37.17;;;13.18;;
22849;SDS011;11591;44.792;10.358;2023-01-30T11:55:57;42.08;;;15.02;;
22849;SDS011;11591;44.792;10.358;2023-01-30T11:58:29;47.15;;;17.95;;
22849;SDS011;11591;44.792;10.358;2023-01-30T12:00:57;51.85;;;18.58;;
22849;SDS011;11591;44.792;10.358;2023-01-30T12:03:23;41.83;;;15.95;;
22849;SDS011;11591;44.792;10.358;2023-01-30T12:05:51;42.05;;;15.13;;
22849;SDS011;11591;44.792;10.358;2023-01-30T12:10:46;48.50;;;17.52;;
22849;SDS011;11591;44.792;10.358;2023-01-30T12:18:53;45.88;;;15.27;;
22849;SDS011;11591;44.792;10.358;2023-01-30T12:21:47;46.67;;;16.80;;
22849;SDS011;11591;44.792;10.358;2023-01-30T12:24:30;47.00;;;16.42;;
22849;SDS011;11591;44.792;10.358;2023-01-30T12:27:08;52.75;;;16.40;;
22849;SDS011;11591;44.792;10.358;2023-01-30T12:32:55;46.13;;;17.05;;
22849;SDS011;11591;44.792;10.358;2023-01-30T12:35:28;45.63;;;17.30;;
22849;SDS011;11591;44.792;10.358;2023-01-30T12:41:16;54.28;;;17.75;;
22849;SDS011;11591;44.792;10.358;2023-01-30T12:44:20;51.15;;;16.05;;
22849;SDS011;11591;44.792;10.358;2023-01-30T12:55:42;46.10;;;16.90;;
22849;SDS011;11591;44.792;10.358;2023-01-30T13:01:19;44.08;;;16.42;;
22849;SDS011;11591;44.792;10.358;2023-01-30T13:06:57;49.65;;;17.88;;
22849;SDS011;11591;44.792;10.358;2023-01-30T13:12:15;51.22;;;18.77;;
22849;SDS011;11591;44.792;10.358;2023-01-30T13:20:51;51.22;;;18.10;;
22849;SDS011;11591;44.792;10.358;2023-01-30T13:26:23;52.08;;;17.95;;
22849;SDS011;11591;44.792;10.358;2023-01-30T13:29:17;49.95;;;18.73;;
22849;SDS011;11591;44.792;10.358;2023-01-30T13:31:57;47.13;;;17.17;;
22849;SDS011;11591;44.792;10.358;2023-01-30T13:34:32;49.90;;;18.40;;
22849;SDS011;11591;44.792;10.358;2023-01-30T13:37:10;47.83;;;17.65;;
22849;SDS011;11591;44.792;10.358;2023-01-30T13:39:50;47.95;;;18.20;;
22849;SDS011;11591;44.792;10.358;2023-01-30T13:44:54;44.67;;;17.10;;
22849;SDS011;11591;44.792;10.358;2023-01-30T13:47:24;49.63;;;18.90;;
22849;SDS011;11591;44.792;10.358;2023-01-30T13:58:43;45.25;;;18.52;;
22849;SDS011;11591;44.792;10.358;2023-01-30T14:01:19;48.17;;;17.92;;
22849;SDS011;11591;44.792;10.358;2023-01-30T14:03:47;48.50;;;18.85;;
22849;SDS011;11591;44.792;10.358;2023-01-30T14:14:05;43.60;;;17.95;;
22849;SDS011;11591;44.792;10.358;2023-01-30T14:16:51;49.22;;;19.15;;
22849;SDS011;11591;44.792;10.358;2023-01-30T14:22:16;47.53;;;19.23;;
22849;SDS011;11591;44.792;10.358;2023-01-30T14:38:24;52.80;;;22.70;;
22849;SDS011;11591;44.792;10.358;2023-01-30T14:56:42;52.47;;;23.63;;
22849;SDS011;11591;44.792;10.358;2023-01-30T14:59:23;56.17;;;25.02;;
22849;SDS011;11591;44.792;10.358;2023-01-30T15:04:21;59.15;;;25.83;;
22849;SDS011;11591;44.792;10.358;2023-01-30T15:06:50;54.20;;;24.80;;
22849;SDS011;11591;44.792;10.358;2023-01-30T15:09:17;57.38;;;25.25;;
22849;SDS011;11591;44.792;10.358;2023-01-30T15:11:47;57.33;;;25.02;;
22849;SDS011;11591;44.792;10.358;2023-01-30T15:14:30;51.50;;;24.05;;
22849;SDS011;11591;44.792;10.358;2023-01-30T15:20:17;55.75;;;23.58;;
22849;SDS011;11591;44.792;10.358;2023-01-30T15:25:28;57.75;;;25.05;;
22849;SDS011;11591;44.792;10.358;2023-01-30T15:33:16;52.53;;;24.38;;
22849;SDS011;11591;44.792;10.358;2023-01-30T15:35:44;55.83;;;24.42;;
22849;SDS011;11591;44.792;10.358;2023-01-30T15:38:24;52.95;;;23.27;;
22849;SDS011;11591;44.792;10.358;2023-01-30T15:40:50;58.40;;;26.00;;
22849;SDS011;11591;44.792;10.358;2023-01-30T15:43:27;57.30;;;24.48;;
22849;SDS011;11591;44.792;10.358;2023-01-30T15:51:46;59.80;;;24.13;;
22849;SDS011;11591;44.792;10.358;2023-01-30T15:54:14;60.35;;;25.00;;
22849;SDS011;11591;44.792;10.358;2023-01-30T15:56:44;61.03;;;23.85;;
22849;SDS011;11591;44.792;10.358;2023-01-30T15:59:19;58.33;;;24.85;;
22849;SDS011;11591;44.792;10.358;2023-01-30T16:01:59;56.58;;;24.35;;
22849;SDS011;11591;44.792;10.358;2023-01-30T16:04:29;64.10;;;25.73;;
22849;SDS011;11591;44.792;10.358;2023-01-30T16:06:56;57.95;;;24.90;;
22849;SDS011;11591;44.792;10.358;2023-01-30T16:09:24;63.58;;;25.70;;
22849;SDS011;11591;44.792;10.358;2023-01-30T16:11:50;62.80;;;25.15;;
22849;SDS011;11591;44.792;10.358;2023-01-30T16:14:17;59.53;;;25.17;;
22849;SDS011;11591;44.792;10.358;2023-01-30T16:19:27;60.65;;;23.95;;
22849;SDS011;11591;44.792;10.358;2023-01-30T16:21:57;56.95;;;23.63;;
22849;SDS011;11591;44.792;10.358;2023-01-30T16:24:29;65.30;;;25.67;;
22849;SDS011;11591;44.792;10.358;2023-01-30T16:26:58;60.53;;;25.42;;
22849;SDS011;11591;44.792;10.358;2023-01-30T16:29:30;60.80;;;24.50;;
22849;SDS011;11591;44.792;10.358;2023-01-30T16:31:58;69.53;;;25.85;;
22849;SDS011;11591;44.792;10.358;2023-01-30T16:34:32;68.35;;;25.55;;
22849;SDS011;11591;44.792;10.358;2023-01-30T16:39:43;70.47;;;28.05;;
22849;SDS011;11591;44.792;10.358;2023-01-30T16:44:47;67.18;;;25.00;;
22849;SDS011;11591;44.792;10.358;2023-01-30T16:47:23;63.40;;;25.73;;
22849;SDS011;11591;44.792;10.358;2023-01-30T16:49:51;72.93;;;25.52;;
22849;SDS011;11591;44.792;10.358;2023-01-30T16:54:52;71.28;;;26.58;;
22849;SDS011;11591;44.792;10.358;2023-01-30T17:00:01;67.18;;;24.95;;
22849;SDS011;11591;44.792;10.358;2023-01-30T17:02:52;60.15;;;23.73;;
22849;SDS011;11591;44.792;10.358;2023-01-30T17:05:30;58.38;;;22.55;;
22849;SDS011;11591;44.792;10.358;2023-01-30T17:08:03;62.28;;;24.83;;
22849;SDS011;11591;44.792;10.358;2023-01-30T17:13:25;62.58;;;23.40;;
22849;SDS011;11591;44.792;10.358;2023-01-30T17:18:50;55.05;;;23.00;;
22849;SDS011;11591;44.792;10.358;2023-01-30T17:21:18;59.63;;;24.15;;
22849;SDS011;11591;44.792;10.358;2023-01-30T17:23:52;60.45;;;23.30;;
22849;SDS011;11591;44.792;10.358;2023-01-30T17:26:21;66.60;;;24.67;;
22849;SDS011;11591;44.792;10.358;2023-01-30T17:28:47;78.00;;;29.00;;
22849;SDS011;11591;44.792;10.358;2023-01-30T17:31:14;59.00;;;23.45;;
22849;SDS011;11591;44.792;10.358;2023-01-30T17:33:40;59.30;;;23.35;;
22849;SDS011;11591;44.792;10.358;2023-01-30T17:36:12;66.20;;;26.02;;
22849;SDS011;11591;44.792;10.358;2023-01-30T17:38:44;66.45;;;24.75;;
22849;SDS011;11591;44.792;10.358;2023-01-30T17:41:18;65.32;;;25.10;;
22849;SDS011;11591;44.792;10.358;2023-01-30T17:43:46;67.43;;;25.23;;
22849;SDS011;11591;44.792;10.358;2023-01-30T17:46:12;62.60;;;24.48;;
22849;SDS011;11591;44.792;10.358;2023-01-30T17:48:39;71.60;;;25.15;;
22849;SDS011;11591;44.792;10.358;2023-01-30T17:51:06;65.38;;;24.55;;
22849;SDS011;11591;44.792;10.358;2023-01-30T17:53:33;66.40;;;25.58;;
22849;SDS011;11591;44.792;10.358;2023-01-30T17:55:59;63.55;;;23.73;;
22849;SDS011;11591;44.792;10.358;2023-01-30T17:58:25;69.28;;;25.05;;